Impacts TAF Board
For situational awareness. Not to be used for flight planning purposes.
IDs:

KSAN - San Diego Intl Arpt, CA, US

Issued at 2046 UTC 21 May 2022
Updated at 2132 UTC 21 May 2022
Potential Impact None Slight Moderate High
Time2051Z 21/22Z 21/23Z 22/00Z 22/01Z 22/02Z 22/03Z 22/04Z 22/05Z 22/06Z 22/07Z 22/08Z 22/09Z 22/10Z>>
Type OBS PRVL PRVL PRVL PRVL PRVL PRVL PRVL PRVL PRVL PRVL PRVL PRVL PRVL
VIS 10 >6 >6 >6 >6 >6 >6 >6 >6 >6 >6 >6 >6 >6
CIG 43 45 45 15 15 15 15 15 15 15 15 15 15 15
Cover BKN BKN BKN OVC OVC OVC OVC OVC OVC OVC OVC OVC OVC OVC
FltCat VFR VFR VFR MVFR MVFR MVFR MVFR MVFR MVFR MVFR MVFR MVFR MVFR MVFR
WX -- -- -- -- -- -- -- -- -- -- -- -- -- --
WDir 210 190 190 190 190 190 190 190 190 190 190 190 190 190
WSpd 10 11 11 6 6 6 6 6 6 6 6 6 6 6
WGst 18 -- -- -- -- -- -- -- -- -- -- -- -- --
WSHgt -- -- -- -- -- -- -- -- -- -- -- -- -- --
WSDir -- -- -- -- -- -- -- -- -- -- -- -- -- --
WSSpd -- -- -- -- -- -- -- -- -- -- -- -- -- --
Raw TAF
KSAN 212046Z 2121/2224 19011KT P6SM SCT030 BKN045
  FM220000 19006KT P6SM BKN015 OVC025
  FM221800 29008KT P6SM BKN025


Raw METAR
KSAN 212051Z 21010G18KT 10SM FEW020 BKN043 18/12 A2999 RMK AO2 SLP156 T01830117 51005
KSAN 211951Z 20009KT 10SM SCT028 BKN044 18/12 A2999 RMK AO2 SLP155 T01780117
KSAN 211851Z 20008KT 10SM SCT026 OVC042 18/12 A2999 RMK AO2 SLP155 T01780117
KSAN 211840Z 20010G21KT 10SM SCT026 OVC042 17/11 A2999 RMK AO2 T01670111

METAR Board
Radar Display
Forecast Discussion
For situational awareness. Not to be used for flight planning purposes.